sensor_id;sensor_type;location;lat;lon;timestamp;temperature;humidity
39017;DHT22;24784;45.582;5.276;2023-12-29T09:44:01;10.10;99.90
39017;DHT22;24784;45.582;5.276;2023-12-29T09:46:30;10.20;99.90
39017;DHT22;24784;45.582;5.276;2023-12-29T09:48:58;10.30;99.90
39017;DHT22;24784;45.582;5.276;2023-12-29T09:51:26;10.30;99.90
39017;DHT22;24784;45.582;5.276;2023-12-29T09:53:52;10.30;99.90
39017;DHT22;24784;45.582;5.276;2023-12-29T09:56:18;10.20;99.90
39017;DHT22;24784;45.582;5.276;2023-12-29T09:58:47;10.20;99.90
39017;DHT22;24784;45.582;5.276;2023-12-29T10:01:13;10.30;99.90
39017;DHT22;24784;45.582;5.276;2023-12-29T10:03:39;10.40;99.90
39017;DHT22;24784;45.582;5.276;2023-12-29T10:06:07;10.50;99.90
39017;DHT22;24784;45.582;5.276;2023-12-29T10:08:37;10.70;99.90
39017;DHT22;24784;45.582;5.276;2023-12-29T10:11:05;10.70;99.90
39017;DHT22;24784;45.582;5.276;2023-12-29T10:13:33;10.70;99.90
39017;DHT22;24784;45.582;5.276;2023-12-29T10:19:24;11.00;99.90
39017;DHT22;24784;45.582;5.276;2023-12-29T10:22:01;11.00;99.90
39017;DHT22;24784;45.582;5.276;2023-12-29T10:24:29;11.20;99.90
39017;DHT22;24784;45.582;5.276;2023-12-29T10:26:55;11.20;99.90
39017;DHT22;24784;45.582;5.276;2023-12-29T10:29:21;11.30;99.90
39017;DHT22;24784;45.582;5.276;2023-12-29T10:31:47;11.30;99.90
39017;DHT22;24784;45.582;5.276;2023-12-29T10:34:25;11.30;99.90
39017;DHT22;24784;45.582;5.276;2023-12-29T10:36:55;11.30;99.90
39017;DHT22;24784;45.582;5.276;2023-12-29T10:39:21;11.20;99.90
39017;DHT22;24784;45.582;5.276;2023-12-29T10:41:48;11.20;99.90
39017;DHT22;24784;45.582;5.276;2023-12-29T10:44:13;11.20;99.90
39017;DHT22;24784;45.582;5.276;2023-12-29T10:46:39;11.20;99.90
39017;DHT22;24784;45.582;5.276;2023-12-29T10:49:09;11.20;99.90
39017;DHT22;24784;45.582;5.276;2023-12-29T10:51:35;11.20;99.90
39017;DHT22;24784;45.582;5.276;2023-12-29T10:54:01;11.30;99.90
39017;DHT22;24784;45.582;5.276;2023-12-29T10:56:27;11.30;99.90
39017;DHT22;24784;45.582;5.276;2023-12-29T10:58:58;11.50;99.90
39017;DHT22;24784;45.582;5.276;2023-12-29T11:01:24;11.40;99.90
39017;DHT22;24784;45.582;5.276;2023-12-29T11:04:05;11.50;99.90
39017;DHT22;24784;45.582;5.276;2023-12-29T11:06:42;11.50;99.90
39017;DHT22;24784;45.582;5.276;2023-12-29T11:09:10;11.60;99.90
39017;DHT22;24784;45.582;5.276;2023-12-29T11:11:37;11.60;99.90
39017;DHT22;24784;45.582;5.276;2023-12-29T11:14:03;11.80;99.90
39017;DHT22;24784;45.582;5.276;2023-12-29T11:16:29;11.70;99.90
39017;DHT22;24784;45.582;5.276;2023-12-29T11:18:58;11.70;99.90
39017;DHT22;24784;45.582;5.276;2023-12-29T11:21:26;11.70;99.90
39017;DHT22;24784;45.582;5.276;2023-12-29T11:23:53;11.70;99.90
39017;DHT22;24784;45.582;5.276;2023-12-29T11:26:19;11.70;99.90
39017;DHT22;24784;45.582;5.276;2023-12-29T11:28:48;11.60;99.90
39017;DHT22;24784;45.582;5.276;2023-12-29T11:31:17;11.60;99.90
39017;DHT22;24784;45.582;5.276;2023-12-29T11:33:48;11.60;99.90
39017;DHT22;24784;45.582;5.276;2023-12-29T11:36:53;11.60;99.90
39017;DHT22;24784;45.582;5.276;2023-12-29T11:41:59;11.80;99.90
39017;DHT22;24784;45.582;5.276;2023-12-29T11:44:27;11.80;99.90
39017;DHT22;24784;45.582;5.276;2023-12-29T11:46:54;11.90;99.90
39017;DHT22;24784;45.582;5.276;2023-12-29T11:49:20;12.00;99.90
39017;DHT22;24784;45.582;5.276;2023-12-29T11:51:49;12.00;99.90
39017;DHT22;24784;45.582;5.276;2023-12-29T11:54:23;12.00;99.90
39017;DHT22;24784;45.582;5.276;2023-12-29T11:56:49;12.00;99.90
39017;DHT22;24784;45.582;5.276;2023-12-29T11:59:23;12.00;99.90
39017;DHT22;24784;45.582;5.276;2023-12-29T12:01:53;12.00;99.90
39017;DHT22;24784;45.582;5.276;2023-12-29T12:07:09;11.90;99.90
39017;DHT22;24784;45.582;5.276;2023-12-29T12:09:35;12.00;99.90
39017;DHT22;24784;45.582;5.276;2023-12-29T12:12:02;12.00;99.90
39017;DHT22;24784;45.582;5.276;2023-12-29T12:14:51;12.10;99.90
39017;DHT22;24784;45.582;5.276;2023-12-29T12:17:33;12.10;99.90
39017;DHT22;24784;45.582;5.276;2023-12-29T12:20:09;12.20;99.90
39017;DHT22;24784;45.582;5.276;2023-12-29T12:22:36;12.20;99.90
39017;DHT22;24784;45.582;5.276;2023-12-29T12:25:03;12.10;99.90
39017;DHT22;24784;45.582;5.276;2023-12-29T12:27:30;12.10;99.90
39017;DHT22;24784;45.582;5.276;2023-12-29T12:29:59;12.10;99.90
39017;DHT22;24784;45.582;5.276;2023-12-29T12:32:29;12.10;99.90
39017;DHT22;24784;45.582;5.276;2023-12-29T12:34:56;12.00;99.90
39017;DHT22;24784;45.582;5.276;2023-12-29T12:37:23;12.00;99.90
39017;DHT22;24784;45.582;5.276;2023-12-29T12:39:49;12.00;99.90
39017;DHT22;24784;45.582;5.276;2023-12-29T12:42:16;12.00;99.90
39017;DHT22;24784;45.582;5.276;2023-12-29T12:45:03;12.00;99.90
39017;DHT22;24784;45.582;5.276;2023-12-29T12:48:11;11.90;99.90
39017;DHT22;24784;45.582;5.276;2023-12-29T12:50:45;11.90;99.90
39017;DHT22;24784;45.582;5.276;2023-12-29T12:53:12;11.90;99.90
39017;DHT22;24784;45.582;5.276;2023-12-29T12:55:40;11.90;99.90
39017;DHT22;24784;45.582;5.276;2023-12-29T12:58:07;11.90;99.90
39017;DHT22;24784;45.582;5.276;2023-12-29T13:00:33;11.90;99.90
39017;DHT22;24784;45.582;5.276;2023-12-29T13:03:00;11.90;99.90
39017;DHT22;24784;45.582;5.276;2023-12-29T13:05:26;11.80;99.90
39017;DHT22;24784;45.582;5.276;2023-12-29T13:07:54;11.80;99.90
39017;DHT22;24784;45.582;5.276;2023-12-29T13:10:22;11.80;99.90
39017;DHT22;24784;45.582;5.276;2023-12-29T13:12:54;11.80;99.90
39017;DHT22;24784;45.582;5.276;2023-12-29T13:15:20;11.80;99.90
39017;DHT22;24784;45.582;5.276;2023-12-29T13:17:55;11.80;99.90
39017;DHT22;24784;45.582;5.276;2023-12-29T13:20:21;11.70;99.90
39017;DHT22;24784;45.582;5.276;2023-12-29T13:22:48;11.70;99.90
39017;DHT22;24784;45.582;5.276;2023-12-29T13:25:19;11.70;99.90
39017;DHT22;24784;45.582;5.276;2023-12-29T13:27:46;11.60;99.90
39017;DHT22;24784;45.582;5.276;2023-12-29T13:30:12;11.50;99.90
39017;DHT22;24784;45.582;5.276;2023-12-29T13:32:40;11.50;99.90
39017;DHT22;24784;45.582;5.276;2023-12-29T13:37:46;11.40;99.90
39017;DHT22;24784;45.582;5.276;2023-12-29T13:40:22;11.40;99.90
39017;DHT22;24784;45.582;5.276;2023-12-29T13:42:49;11.40;99.90
39017;DHT22;24784;45.582;5.276;2023-12-29T13:45:17;11.40;99.90
39017;DHT22;24784;45.582;5.276;2023-12-29T13:47:45;11.50;99.90
39017;DHT22;24784;45.582;5.276;2023-12-29T13:50:10;11.60;99.90
39017;DHT22;24784;45.582;5.276;2023-12-29T13:52:37;11.60;99.90
39017;DHT22;24784;45.582;5.276;2023-12-29T13:55:04;11.60;99.90
39017;DHT22;24784;45.582;5.276;2023-12-29T13:57:31;11.60;99.90
39017;DHT22;24784;45.582;5.276;2023-12-29T13:59:57;11.60;99.90
39017;DHT22;24784;45.582;5.276;2023-12-29T14:02:24;11.60;99.90
39017;DHT22;24784;45.582;5.276;2023-12-29T14:05:15;11.70;99.90
39017;DHT22;24784;45.582;5.276;2023-12-29T14:07:52;11.70;99.90
39017;DHT22;24784;45.582;5.276;2023-12-29T14:10:19;11.70;99.90
39017;DHT22;24784;45.582;5.276;2023-12-29T14:12:45;11.70;99.90
39017;DHT22;24784;45.582;5.276;2023-12-29T14:15:11;11.70;99.90
39017;DHT22;24784;45.582;5.276;2023-12-29T14:17:38;11.70;99.90
39017;DHT22;24784;45.582;5.276;2023-12-29T14:20:08;11.70;99.90
39017;DHT22;24784;45.582;5.276;2023-12-29T14:22:34;11.60;99.90
39017;DHT22;24784;45.582;5.276;2023-12-29T14:25:05;11.60;99.90
39017;DHT22;24784;45.582;5.276;2023-12-29T14:27:31;11.70;99.90
39017;DHT22;24784;45.582;5.276;2023-12-29T14:29:57;11.70;99.90
39017;DHT22;24784;45.582;5.276;2023-12-29T14:32:23;11.70;99.90
39017;DHT22;24784;45.582;5.276;2023-12-29T14:34:50;11.60;99.90
39017;DHT22;24784;45.582;5.276;2023-12-29T14:37:21;11.60;99.90
39017;DHT22;24784;45.582;5.276;2023-12-29T14:39:51;11.60;99.90
39017;DHT22;24784;45.582;5.276;2023-12-29T14:42:17;11.60;99.90
39017;DHT22;24784;45.582;5.276;2023-12-29T14:44:46;11.60;99.90
39017;DHT22;24784;45.582;5.276;2023-12-29T14:47:13;11.70;99.90
39017;DHT22;24784;45.582;5.276;2023-12-29T14:49:38;11.60;99.90
39017;DHT22;24784;45.582;5.276;2023-12-29T14:52:04;11.70;99.90
39017;DHT22;24784;45.582;5.276;2023-12-29T14:54:30;11.60;99.90
39017;DHT22;24784;45.582;5.276;2023-12-29T14:56:55;11.60;99.90
39017;DHT22;24784;45.582;5.276;2023-12-29T14:59:21;11.60;99.90
39017;DHT22;24784;45.582;5.276;2023-12-29T15:01:47;11.60;99.90
39017;DHT22;24784;45.582;5.276;2023-12-29T15:04:12;11.50;99.90
39017;DHT22;24784;45.582;5.276;2023-12-29T15:06:40;11.50;99.90
39017;DHT22;24784;45.582;5.276;2023-12-29T15:09:05;11.50;99.90
39017;DHT22;24784;45.582;5.276;2023-12-29T15:11:33;11.50;99.90
39017;DHT22;24784;45.582;5.276;2023-12-29T15:13:59;11.50;99.90
39017;DHT22;24784;45.582;5.276;2023-12-29T15:16:24;11.50;99.90
39017;DHT22;24784;45.582;5.276;2023-12-29T15:18:50;11.50;99.90
39017;DHT22;24784;45.582;5.276;2023-12-29T15:21:15;11.50;99.90
39017;DHT22;24784;45.582;5.276;2023-12-29T15:23:41;11.40;99.90
39017;DHT22;24784;45.582;5.276;2023-12-29T15:26:07;11.40;99.90
39017;DHT22;24784;45.582;5.276;2023-12-29T15:28:32;11.40;99.90
39017;DHT22;24784;45.582;5.276;2023-12-29T15:30:58;11.30;99.90
39017;DHT22;24784;45.582;5.276;2023-12-29T15:33:23;11.30;99.90
39017;DHT22;24784;45.582;5.276;2023-12-29T15:35:50;11.30;99.90
39017;DHT22;24784;45.582;5.276;2023-12-29T15:38:16;11.30;99.90
39017;DHT22;24784;45.582;5.276;2023-12-29T15:40:42;11.30;99.90
39017;DHT22;24784;45.582;5.276;2023-12-29T15:43:08;11.30;99.90
39017;DHT22;24784;45.582;5.276;2023-12-29T15:45:33;11.20;99.90
39017;DHT22;24784;45.582;5.276;2023-12-29T15:48:00;11.20;99.90
39017;DHT22;24784;45.582;5.276;2023-12-29T15:50:26;11.30;99.90
39017;DHT22;24784;45.582;5.276;2023-12-29T15:52:51;11.30;99.90
39017;DHT22;24784;45.582;5.276;2023-12-29T15:55:18;11.30;99.90
39017;DHT22;24784;45.582;5.276;2023-12-29T15:57:43;11.20;99.90
39017;DHT22;24784;45.582;5.276;2023-12-29T16:00:10;11.20;99.90
39017;DHT22;24784;45.582;5.276;2023-12-29T16:02:36;11.20;99.90
39017;DHT22;24784;45.582;5.276;2023-12-29T16:05:02;11.10;99.90
39017;DHT22;24784;45.582;5.276;2023-12-29T16:07:28;11.10;99.90
39017;DHT22;24784;45.582;5.276;2023-12-29T16:09:54;11.10;99.90
39017;DHT22;24784;45.582;5.276;2023-12-29T16:12:19;11.10;99.90
39017;DHT22;24784;45.582;5.276;2023-12-29T16:14:51;11.10;99.90
39017;DHT22;24784;45.582;5.276;2023-12-29T16:17:18;11.10;99.90
39017;DHT22;24784;45.582;5.276;2023-12-29T16:19:44;11.10;99.90
39017;DHT22;24784;45.582;5.276;2023-12-29T16:22:11;11.20;99.90
39017;DHT22;24784;45.582;5.276;2023-12-29T16:24:38;11.20;99.90
39017;DHT22;24784;45.582;5.276;2023-12-29T16:27:04;11.20;99.90
39017;DHT22;24784;45.582;5.276;2023-12-29T16:29:30;11.20;99.90
39017;DHT22;24784;45.582;5.276;2023-12-29T16:31:56;11.20;99.90
39017;DHT22;24784;45.582;5.276;2023-12-29T16:34:21;11.20;99.90
39017;DHT22;24784;45.582;5.276;2023-12-29T16:36:58;11.20;99.90
39017;DHT22;24784;45.582;5.276;2023-12-29T16:39:24;11.20;99.90
39017;DHT22;24784;45.582;5.276;2023-12-29T16:41:50;11.20;99.90
39017;DHT22;24784;45.582;5.276;2023-12-29T16:44:16;11.20;99.90
39017;DHT22;24784;45.582;5.276;2023-12-29T16:46:42;11.20;99.90
39017;DHT22;24784;45.582;5.276;2023-12-29T16:49:08;11.20;99.90
39017;DHT22;24784;45.582;5.276;2023-12-29T16:51:33;11.20;99.90
39017;DHT22;24784;45.582;5.276;2023-12-29T16:53:59;11.20;99.90
39017;DHT22;24784;45.582;5.276;2023-12-29T16:56:25;11.00;99.90
39017;DHT22;24784;45.582;5.276;2023-12-29T16:58:50;11.00;99.90
39017;DHT22;24784;45.582;5.276;2023-12-29T17:01:16;11.00;99.90
39017;DHT22;24784;45.582;5.276;2023-12-29T17:03:43;11.00;99.90
39017;DHT22;24784;45.582;5.276;2023-12-29T17:06:16;11.00;99.90
39017;DHT22;24784;45.582;5.276;2023-12-29T17:08:42;11.00;99.90
39017;DHT22;24784;45.582;5.276;2023-12-29T17:11:07;11.10;99.90
39017;DHT22;24784;45.582;5.276;2023-12-29T17:13:33;11.00;99.90
39017;DHT22;24784;45.582;5.276;2023-12-29T17:16:01;11.00;99.90
39017;DHT22;24784;45.582;5.276;2023-12-29T17:18:29;11.00;99.90
39017;DHT22;24784;45.582;5.276;2023-12-29T17:20:55;11.00;99.90
39017;DHT22;24784;45.582;5.276;2023-12-29T17:23:20;11.00;99.90
39017;DHT22;24784;45.582;5.276;2023-12-29T17:25:46;10.90;99.90
39017;DHT22;24784;45.582;5.276;2023-12-29T17:28:12;10.90;99.90
39017;DHT22;24784;45.582;5.276;2023-12-29T17:30:37;10.90;99.90
39017;DHT22;24784;45.582;5.276;2023-12-29T17:33:06;10.90;99.90
39017;DHT22;24784;45.582;5.276;2023-12-29T17:35:32;11.00;99.90
39017;DHT22;24784;45.582;5.276;2023-12-29T17:37:57;10.90;99.90
39017;DHT22;24784;45.582;5.276;2023-12-29T17:40:23;10.90;99.90
39017;DHT22;24784;45.582;5.276;2023-12-29T17:42:49;10.90;99.90
39017;DHT22;24784;45.582;5.276;2023-12-29T17:45:14;10.90;99.90
39017;DHT22;24784;45.582;5.276;2023-12-29T17:47:40;10.90;99.90
39017;DHT22;24784;45.582;5.276;2023-12-29T17:50:08;10.90;99.90
39017;DHT22;24784;45.582;5.276;2023-12-29T17:52:36;10.90;99.90
39017;DHT22;24784;45.582;5.276;2023-12-29T17:55:03;10.90;99.90
39017;DHT22;24784;45.582;5.276;2023-12-29T17:57:29;10.90;99.90
39017;DHT22;24784;45.582;5.276;2023-12-29T17:59:55;10.80;99.90
39017;DHT22;24784;45.582;5.276;2023-12-29T18:02:21;10.80;99.90
39017;DHT22;24784;45.582;5.276;2023-12-29T18:04:47;10.80;99.90
39017;DHT22;24784;45.582;5.276;2023-12-29T18:07:12;10.80;99.90
39017;DHT22;24784;45.582;5.276;2023-12-29T18:09:38;10.80;99.90
39017;DHT22;24784;45.582;5.276;2023-12-29T18:12:05;10.80;99.90
39017;DHT22;24784;45.582;5.276;2023-12-29T18:14:39;10.80;99.90
39017;DHT22;24784;45.582;5.276;2023-12-29T18:17:05;10.70;99.90
39017;DHT22;24784;45.582;5.276;2023-12-29T18:19:39;10.70;99.90
39017;DHT22;24784;45.582;5.276;2023-12-29T18:22:05;10.80;99.90
39017;DHT22;24784;45.582;5.276;2023-12-29T18:24:31;10.80;99.90
39017;DHT22;24784;45.582;5.276;2023-12-29T18:26:57;10.70;99.90
39017;DHT22;24784;45.582;5.276;2023-12-29T18:29:23;10.70;99.90
39017;DHT22;24784;45.582;5.276;2023-12-29T18:31:50;10.70;99.90
39017;DHT22;24784;45.582;5.276;2023-12-29T18:34:16;10.60;99.90
39017;DHT22;24784;45.582;5.276;2023-12-29T18:36:42;10.60;99.90
39017;DHT22;24784;45.582;5.276;2023-12-29T18:39:08;10.50;99.90
39017;DHT22;24784;45.582;5.276;2023-12-29T18:41:34;10.50;99.90
39017;DHT22;24784;45.582;5.276;2023-12-29T18:43:59;10.50;99.90
39017;DHT22;24784;45.582;5.276;2023-12-29T18:46:25;10.40;99.90
39017;DHT22;24784;45.582;5.276;2023-12-29T18:48:51;10.40;99.90
39017;DHT22;24784;45.582;5.276;2023-12-29T18:51:17;10.40;99.90
39017;DHT22;24784;45.582;5.276;2023-12-29T18:53:43;10.30;99.90
39017;DHT22;24784;45.582;5.276;2023-12-29T18:56:09;10.30;99.90
39017;DHT22;24784;45.582;5.276;2023-12-29T18:58:35;10.20;99.90
39017;DHT22;24784;45.582;5.276;2023-12-29T19:01:01;10.20;99.90
39017;DHT22;24784;45.582;5.276;2023-12-29T19:03:29;10.20;99.90
39017;DHT22;24784;45.582;5.276;2023-12-29T19:05:56;10.20;99.90
39017;DHT22;24784;45.582;5.276;2023-12-29T19:08:22;10.20;99.90
39017;DHT22;24784;45.582;5.276;2023-12-29T19:10:49;10.20;99.90
39017;DHT22;24784;45.582;5.276;2023-12-29T19:13:16;10.10;99.90
39017;DHT22;24784;45.582;5.276;2023-12-29T19:15:42;10.10;99.90
39017;DHT22;24784;45.582;5.276;2023-12-29T19:18:08;10.10;99.90
39017;DHT22;24784;45.582;5.276;2023-12-29T19:20:34;10.00;99.90
39017;DHT22;24784;45.582;5.276;2023-12-29T19:23:00;10.00;99.90
39017;DHT22;24784;45.582;5.276;2023-12-29T19:25:26;10.00;99.90
39017;DHT22;24784;45.582;5.276;2023-12-29T19:27:51;10.00;99.90
39017;DHT22;24784;45.582;5.276;2023-12-29T19:30:19;10.00;99.90
39017;DHT22;24784;45.582;5.276;2023-12-29T19:32:45;10.00;99.90
39017;DHT22;24784;45.582;5.276;2023-12-29T19:35:14;10.00;99.90
39017;DHT22;24784;45.582;5.276;2023-12-29T19:37:41;10.00;99.90
39017;DHT22;24784;45.582;5.276;2023-12-29T19:40:09;10.00;99.90
39017;DHT22;24784;45.582;5.276;2023-12-29T19:42:35;10.00;99.90
39017;DHT22;24784;45.582;5.276;2023-12-29T19:45:01;10.00;99.90
39017;DHT22;24784;45.582;5.276;2023-12-29T19:47:28;10.00;99.90
39017;DHT22;24784;45.582;5.276;2023-12-29T19:49:53;9.90;99.90
39017;DHT22;24784;45.582;5.276;2023-12-29T19:52:19;9.90;99.90
39017;DHT22;24784;45.582;5.276;2023-12-29T19:54:50;9.80;99.90
39017;DHT22;24784;45.582;5.276;2023-12-29T19:57:16;9.80;99.90
39017;DHT22;24784;45.582;5.276;2023-12-29T19:59:41;9.70;99.90
39017;DHT22;24784;45.582;5.276;2023-12-29T20:02:08;9.70;99.90
39017;DHT22;24784;45.582;5.276;2023-12-29T20:04:33;9.70;99.90
39017;DHT22;24784;45.582;5.276;2023-12-29T20:06:59;9.70;99.90
39017;DHT22;24784;45.582;5.276;2023-12-29T20:09:25;9.70;99.90
39017;DHT22;24784;45.582;5.276;2023-12-29T20:11:50;9.60;99.90
39017;DHT22;24784;45.582;5.276;2023-12-29T20:14:16;9.60;99.90
39017;DHT22;24784;45.582;5.276;2023-12-29T20:16:43;9.60;99.90
39017;DHT22;24784;45.582;5.276;2023-12-29T20:19:09;9.60;99.90
39017;DHT22;24784;45.582;5.276;2023-12-29T20:21:35;9.70;99.90
39017;DHT22;24784;45.582;5.276;2023-12-29T20:24:01;9.70;99.90
39017;DHT22;24784;45.582;5.276;2023-12-29T20:26:27;9.70;99.90
39017;DHT22;24784;45.582;5.276;2023-12-29T20:28:55;9.70;99.90
39017;DHT22;24784;45.582;5.276;2023-12-29T20:31:25;9.70;99.90
39017;DHT22;24784;45.582;5.276;2023-12-29T20:33:51;9.70;99.90
39017;DHT22;24784;45.582;5.276;2023-12-29T20:36:18;9.60;99.90
39017;DHT22;24784;45.582;5.276;2023-12-29T20:38:45;9.70;99.90
39017;DHT22;24784;45.582;5.276;2023-12-29T20:41:11;9.70;99.90
39017;DHT22;24784;45.582;5.276;2023-12-29T20:43:37;9.60;99.90
39017;DHT22;24784;45.582;5.276;2023-12-29T20:46:03;9.50;99.90
39017;DHT22;24784;45.582;5.276;2023-12-29T20:48:29;9.50;99.90
39017;DHT22;24784;45.582;5.276;2023-12-29T20:50:55;9.50;99.90
39017;DHT22;24784;45.582;5.276;2023-12-29T20:53:20;9.40;99.90
39017;DHT22;24784;45.582;5.276;2023-12-29T20:55:46;9.40;99.90
39017;DHT22;24784;45.582;5.276;2023-12-29T20:58:15;9.50;99.90
39017;DHT22;24784;45.582;5.276;2023-12-29T21:00:40;9.40;99.90
39017;DHT22;24784;45.582;5.276;2023-12-29T21:03:06;9.40;99.90
39017;DHT22;24784;45.582;5.276;2023-12-29T21:05:32;9.40;99.90
39017;DHT22;24784;45.582;5.276;2023-12-29T21:07:58;9.30;99.90
39017;DHT22;24784;45.582;5.276;2023-12-29T21:10:24;9.30;99.90
39017;DHT22;24784;45.582;5.276;2023-12-29T21:12:50;9.20;99.90
39017;DHT22;24784;45.582;5.276;2023-12-29T21:15:15;9.20;99.90
39017;DHT22;24784;45.582;5.276;2023-12-29T21:17:41;9.20;99.90
39017;DHT22;24784;45.582;5.276;2023-12-29T21:20:07;9.10;99.90
39017;DHT22;24784;45.582;5.276;2023-12-29T21:22:36;9.00;99.90
39017;DHT22;24784;45.582;5.276;2023-12-29T21:25:03;9.00;99.90
39017;DHT22;24784;45.582;5.276;2023-12-29T21:27:29;8.90;99.90
39017;DHT22;24784;45.582;5.276;2023-12-29T21:29:58;8.90;99.90
39017;DHT22;24784;45.582;5.276;2023-12-29T21:32:24;9.00;99.90
39017;DHT22;24784;45.582;5.276;2023-12-29T21:34:55;9.00;99.90
39017;DHT22;24784;45.582;5.276;2023-12-29T21:37:21;9.00;99.90
39017;DHT22;24784;45.582;5.276;2023-12-29T21:39:48;8.90;99.90
39017;DHT22;24784;45.582;5.276;2023-12-29T21:42:14;8.90;99.90
39017;DHT22;24784;45.582;5.276;2023-12-29T21:44:40;8.80;99.90
39017;DHT22;24784;45.582;5.276;2023-12-29T21:47:07;8.90;99.90
39017;DHT22;24784;45.582;5.276;2023-12-29T21:49:33;8.90;99.90
39017;DHT22;24784;45.582;5.276;2023-12-29T21:52:00;8.90;99.90
39017;DHT22;24784;45.582;5.276;2023-12-29T21:54:26;8.90;99.90
39017;DHT22;24784;45.582;5.276;2023-12-29T21:56:52;8.90;99.90
39017;DHT22;24784;45.582;5.276;2023-12-29T21:59:19;8.90;99.90
39017;DHT22;24784;45.582;5.276;2023-12-29T22:01:45;8.90;99.90
39017;DHT22;24784;45.582;5.276;2023-12-29T22:04:11;8.90;99.90
39017;DHT22;24784;45.582;5.276;2023-12-29T22:06:38;9.00;99.90
39017;DHT22;24784;45.582;5.276;2023-12-29T22:09:04;9.00;99.90
39017;DHT22;24784;45.582;5.276;2023-12-29T22:11:30;9.00;99.90
39017;DHT22;24784;45.582;5.276;2023-12-29T22:13:56;9.00;99.90
39017;DHT22;24784;45.582;5.276;2023-12-29T22:16:23;9.10;99.90
39017;DHT22;24784;45.582;5.276;2023-12-29T22:18:50;9.10;99.90
39017;DHT22;24784;45.582;5.276;2023-12-29T22:21:17;9.00;99.90
39017;DHT22;24784;45.582;5.276;2023-12-29T22:23:47;9.00;99.90
39017;DHT22;24784;45.582;5.276;2023-12-29T22:26:17;9.00;99.90
39017;DHT22;24784;45.582;5.276;2023-12-29T22:28:44;8.90;99.90
39017;DHT22;24784;45.582;5.276;2023-12-29T22:31:14;8.70;99.90
39017;DHT22;24784;45.582;5.276;2023-12-29T22:33:41;8.70;99.90
39017;DHT22;24784;45.582;5.276;2023-12-29T22:36:14;8.70;99.90
39017;DHT22;24784;45.582;5.276;2023-12-29T22:38:41;8.60;99.90
39017;DHT22;24784;45.582;5.276;2023-12-29T22:41:11;8.60;99.90
39017;DHT22;24784;45.582;5.276;2023-12-29T22:43:37;8.50;99.90
39017;DHT22;24784;45.582;5.276;2023-12-29T22:46:03;8.30;99.90
39017;DHT22;24784;45.582;5.276;2023-12-29T22:48:29;8.30;99.90
39017;DHT22;24784;45.582;5.276;2023-12-29T22:50:57;8.30;99.90
39017;DHT22;24784;45.582;5.276;2023-12-29T22:53:23;8.20;99.90
39017;DHT22;24784;45.582;5.276;2023-12-29T22:55:48;8.10;99.90
39017;DHT22;24784;45.582;5.276;2023-12-29T22:58:14;8.00;99.90
39017;DHT22;24784;45.582;5.276;2023-12-29T23:00:40;8.10;99.90
39017;DHT22;24784;45.582;5.276;2023-12-29T23:03:07;7.90;99.90
39017;DHT22;24784;45.582;5.276;2023-12-29T23:05:33;7.90;99.90
39017;DHT22;24784;45.582;5.276;2023-12-29T23:07:59;7.90;99.90
39017;DHT22;24784;45.582;5.276;2023-12-29T23:10:25;7.80;99.90
39017;DHT22;24784;45.582;5.276;2023-12-29T23:12:53;7.70;99.90
39017;DHT22;24784;45.582;5.276;2023-12-29T23:15:18;7.70;99.90
39017;DHT22;24784;45.582;5.276;2023-12-29T23:17:44;7.60;99.90
39017;DHT22;24784;45.582;5.276;2023-12-29T23:20:10;7.60;99.90
39017;DHT22;24784;45.582;5.276;2023-12-29T23:22:36;7.60;99.90
39017;DHT22;24784;45.582;5.276;2023-12-29T23:25:02;7.60;99.90
39017;DHT22;24784;45.582;5.276;2023-12-29T23:27:28;7.60;99.90
39017;DHT22;24784;45.582;5.276;2023-12-29T23:29:54;7.50;99.90
39017;DHT22;24784;45.582;5.276;2023-12-29T23:32:22;7.60;99.90
39017;DHT22;24784;45.582;5.276;2023-12-29T23:34:51;7.60;99.90
39017;DHT22;24784;45.582;5.276;2023-12-29T23:37:17;7.60;99.90
39017;DHT22;24784;45.582;5.276;2023-12-29T23:39:42;7.60;99.90
39017;DHT22;24784;45.582;5.276;2023-12-29T23:42:08;7.70;99.90
39017;DHT22;24784;45.582;5.276;2023-12-29T23:44:35;7.60;99.90
39017;DHT22;24784;45.582;5.276;2023-12-29T23:47:01;7.50;99.90
39017;DHT22;24784;45.582;5.276;2023-12-29T23:49:27;7.50;99.90
39017;DHT22;24784;45.582;5.276;2023-12-29T23:51:53;7.60;99.90
39017;DHT22;24784;45.582;5.276;2023-12-29T23:54:19;7.50;99.90
39017;DHT22;24784;45.582;5.276;2023-12-29T23:56:45;7.50;99.90
39017;DHT22;24784;45.582;5.276;2023-12-29T23:59:10;7.40;99.90
